createdAt,value
2023-02-05T00:01:37.672Z,2.60
2023-02-05T00:04:04.540Z,1.90
2023-02-05T00:06:31.386Z,2.13
2023-02-05T00:08:58.498Z,2.30
2023-02-05T00:11:26.078Z,2.30
2023-02-05T00:13:53.235Z,2.20
2023-02-05T00:16:22.499Z,3.10
2023-02-05T00:18:49.909Z,2.88
2023-02-05T00:21:18.367Z,2.58
2023-02-05T00:23:45.346Z,3.08
2023-02-05T00:26:14.215Z,2.60
2023-02-05T00:28:42.076Z,3.30
2023-02-05T00:31:14.706Z,2.80
2023-02-05T00:33:41.533Z,3.05
2023-02-05T00:36:10.453Z,3.50
2023-02-05T00:38:38.178Z,2.90
2023-02-05T00:41:05.445Z,3.10
2023-02-05T00:43:32.272Z,3.22
2023-02-05T00:45:59.159Z,3.15
2023-02-05T00:48:26.048Z,2.95
2023-02-05T00:50:53.219Z,3.58
2023-02-05T00:53:21.487Z,2.60
2023-02-05T00:55:48.589Z,2.90
2023-02-05T00:58:15.989Z,2.83
2023-02-05T01:00:43.041Z,3.20
2023-02-05T01:03:10.293Z,2.55
2023-02-05T01:05:38.326Z,2.88
2023-02-05T01:08:07.356Z,2.72
2023-02-05T01:10:34.949Z,2.70
2023-02-05T01:13:01.748Z,2.80
2023-02-05T01:15:28.532Z,2.70
2023-02-05T01:17:55.567Z,2.50
2023-02-05T01:20:22.382Z,2.40
2023-02-05T01:22:49.594Z,2.45
2023-02-05T01:25:16.416Z,2.65
2023-02-05T01:27:45.088Z,2.08
2023-02-05T01:30:13.591Z,2.30
2023-02-05T01:32:41.591Z,2.03
2023-02-05T01:35:09.355Z,1.75
2023-02-05T01:37:36.206Z,2.22
2023-02-05T01:40:04.058Z,2.60
2023-02-05T01:42:32.816Z,2.28
2023-02-05T01:45:21.345Z,2.40
2023-02-05T01:47:49.539Z,2.38
2023-02-05T01:50:19.204Z,2.63
2023-02-05T01:52:46.193Z,2.83
2023-02-05T01:55:13.587Z,2.53
2023-02-05T01:57:40.926Z,2.40
2023-02-05T02:00:08.762Z,2.30
2023-02-05T02:02:42.377Z,2.47
2023-02-05T02:05:14.920Z,2.00
2023-02-05T02:07:42.448Z,2.13
2023-02-05T02:10:12.676Z,1.83
2023-02-05T02:12:42.868Z,2.03
2023-02-05T02:15:15.649Z,1.95
2023-02-05T02:17:45.607Z,2.00
2023-02-05T02:20:16.637Z,2.00
2023-02-05T02:23:03.582Z,2.25
2023-02-05T02:25:55.410Z,1.75
2023-02-05T02:28:47.215Z,2.03
2023-02-05T02:31:23.368Z,1.60
2023-02-05T02:34:00.385Z,1.50
2023-02-05T02:37:06.110Z,1.55
2023-02-05T02:39:39.926Z,1.83
2023-02-05T02:42:16.550Z,1.88
2023-02-05T02:45:10.771Z,1.70
2023-02-05T02:47:45.317Z,1.98
2023-02-05T02:50:14.510Z,1.50
2023-02-05T02:52:44.310Z,1.60
2023-02-05T02:55:13.510Z,1.90
2023-02-05T02:57:48.900Z,1.95
2023-02-05T03:00:22.874Z,1.90
2023-02-05T03:02:52.291Z,1.38
2023-02-05T03:05:22.468Z,1.88
2023-02-05T03:07:56.355Z,2.00
2023-02-05T03:10:34.881Z,2.13
2023-02-05T03:13:02.140Z,1.95
2023-02-05T03:15:29.629Z,1.65
2023-02-05T03:17:56.970Z,1.63
2023-02-05T03:20:31.443Z,2.03
2023-02-05T03:22:58.342Z,1.95
2023-02-05T03:25:27.269Z,2.10
2023-02-05T03:27:57.553Z,2.05
2023-02-05T03:30:33.814Z,1.98
2023-02-05T03:33:58.240Z,2.38
2023-02-05T03:36:29.969Z,1.90
2023-02-05T03:39:31.559Z,2.00
2023-02-05T03:42:13.449Z,2.35
2023-02-05T03:44:54.384Z,2.30
2023-02-05T03:47:43.306Z,1.85
2023-02-05T03:50:25.455Z,1.65
2023-02-05T03:52:59.394Z,1.52
2023-02-05T03:55:33.251Z,1.77
2023-02-05T03:58:19.918Z,2.33
2023-02-05T04:00:47.627Z,1.92
2023-02-05T04:03:15.945Z,1.92
2023-02-05T04:05:43.024Z,1.77
2023-02-05T04:08:10.369Z,1.80
2023-02-05T04:10:43.704Z,1.85
2023-02-05T04:13:12.383Z,2.33
2023-02-05T04:15:41.205Z,1.80
2023-02-05T04:18:10.712Z,1.75
2023-02-05T04:20:37.724Z,1.85
2023-02-05T04:23:06.311Z,1.83
2023-02-05T04:25:34.270Z,1.55
2023-02-05T04:28:01.448Z,1.48
2023-02-05T04:30:29.400Z,1.88
2023-02-05T04:32:56.313Z,1.70
2023-02-05T04:35:23.195Z,1.58
2023-02-05T04:37:50.017Z,1.40
2023-02-05T04:40:18.240Z,1.80
2023-02-05T04:42:45.299Z,1.98
2023-02-05T04:45:13.312Z,2.08
2023-02-05T04:47:40.229Z,2.00
2023-02-05T04:50:07.113Z,1.70
2023-02-05T04:52:33.880Z,1.33
2023-02-05T04:55:00.886Z,2.25
2023-02-05T04:57:31.056Z,1.75
2023-02-05T04:59:57.905Z,1.20
2023-02-05T05:02:24.941Z,1.70
2023-02-05T05:04:51.790Z,1.33
2023-02-05T05:07:18.555Z,1.55
2023-02-05T05:09:45.371Z,1.65
2023-02-05T05:12:12.106Z,2.00
2023-02-05T05:14:38.845Z,1.48
2023-02-05T05:17:05.838Z,1.80
2023-02-05T05:19:32.695Z,1.83
2023-02-05T05:21:59.536Z,1.70
2023-02-05T05:24:26.340Z,1.90
2023-02-05T05:26:53.141Z,1.55
2023-02-05T05:29:19.899Z,1.38
2023-02-05T05:31:46.665Z,1.55
2023-02-05T05:34:13.459Z,1.30
2023-02-05T05:36:43.583Z,1.15
2023-02-05T05:39:29.106Z,1.35
2023-02-05T05:42:14.407Z,1.73
2023-02-05T05:44:41.177Z,1.73
2023-02-05T05:47:08.006Z,1.90
2023-02-05T05:49:34.803Z,2.00
2023-02-05T05:52:01.712Z,1.73
2023-02-05T05:54:28.510Z,2.10
2023-02-05T05:56:55.349Z,1.88
2023-02-05T05:59:22.262Z,2.00
2023-02-05T06:01:49.012Z,2.53
2023-02-05T06:04:15.770Z,2.53
2023-02-05T06:06:42.655Z,2.25
2023-02-05T06:09:09.452Z,2.80
2023-02-05T06:11:36.367Z,2.75
2023-02-05T06:14:03.256Z,2.88
2023-02-05T06:16:30.051Z,2.05
2023-02-05T06:18:57.237Z,2.50
2023-02-05T06:21:24.348Z,2.17
2023-02-05T06:23:51.125Z,2.40
2023-02-05T06:26:17.973Z,2.40
2023-02-05T06:28:44.931Z,2.50
2023-02-05T06:31:11.854Z,2.15
2023-02-05T06:33:38.683Z,1.80
2023-02-05T06:36:06.028Z,2.30
2023-02-05T06:38:32.920Z,2.30
2023-02-05T06:40:59.749Z,2.25
2023-02-05T06:43:26.735Z,2.38
2023-02-05T06:45:53.647Z,2.58
2023-02-05T06:48:20.398Z,2.70
2023-02-05T06:50:47.189Z,2.70
2023-02-05T06:53:14.307Z,2.65
2023-02-05T06:55:41.204Z,2.35
2023-02-05T06:58:08.001Z,2.65
2023-02-05T07:00:35.769Z,2.70
2023-02-05T07:03:03.003Z,2.65
2023-02-05T07:05:29.955Z,2.35
2023-02-05T07:07:56.796Z,2.42
2023-02-05T07:10:23.730Z,2.50
2023-02-05T07:12:50.541Z,2.15
2023-02-05T07:15:17.424Z,2.28
2023-02-05T07:17:44.326Z,2.70
2023-02-05T07:20:11.530Z,2.40
2023-02-05T07:22:38.384Z,2.72
2023-02-05T07:25:05.429Z,2.20
2023-02-05T07:27:32.237Z,2.33
2023-02-05T07:30:00.088Z,2.45
2023-02-05T07:32:26.961Z,3.00
2023-02-05T07:34:53.749Z,2.85
2023-02-05T07:37:21.499Z,3.05
2023-02-05T07:39:48.527Z,2.58
2023-02-05T07:42:15.371Z,2.83
2023-02-05T07:44:49.354Z,2.30
2023-02-05T07:47:16.220Z,2.17
2023-02-05T07:49:42.975Z,2.47
2023-02-05T07:52:09.782Z,2.25
2023-02-05T07:54:36.622Z,2.45
2023-02-05T07:57:05.342Z,2.80
2023-02-05T07:59:33.541Z,3.05
2023-02-05T08:02:00.401Z,2.65
2023-02-05T08:04:27.218Z,2.92
2023-02-05T08:06:54.077Z,2.85
2023-02-05T08:09:21.159Z,2.47
2023-02-05T08:11:47.995Z,2.75
2023-02-05T08:14:14.805Z,3.13
2023-02-05T08:16:41.576Z,2.42
2023-02-05T08:19:13.324Z,2.50
2023-02-05T08:21:40.348Z,2.42
2023-02-05T08:24:07.322Z,2.70
2023-02-05T08:26:34.123Z,2.75
2023-02-05T08:29:00.936Z,2.70
2023-02-05T08:31:27.925Z,3.17
2023-02-05T08:33:56.493Z,3.10
2023-02-05T08:36:23.290Z,3.20
2023-02-05T08:38:50.050Z,3.50
2023-02-05T08:41:16.902Z,4.13
2023-02-05T08:43:46.402Z,4.80
2023-02-05T08:46:16.296Z,4.05
2023-02-05T08:48:43.142Z,3.97
2023-02-05T08:51:11.581Z,4.07
2023-02-05T08:53:38.641Z,3.92
2023-02-05T08:56:06.380Z,4.22
2023-02-05T08:58:33.570Z,4.03
2023-02-05T09:01:06.382Z,4.00
2023-02-05T09:03:33.288Z,4.03
2023-02-05T09:06:00.796Z,4.32
2023-02-05T09:08:29.812Z,4.90
2023-02-05T09:10:57.798Z,4.93
2023-02-05T09:13:25.204Z,4.50
2023-02-05T09:15:52.049Z,4.40
2023-02-05T09:18:18.960Z,4.35
2023-02-05T09:20:48.459Z,4.88
2023-02-05T09:23:17.339Z,4.50
2023-02-05T09:25:44.345Z,4.38
2023-02-05T09:28:13.874Z,3.90
2023-02-05T09:30:43.236Z,4.32
2023-02-05T09:33:11.178Z,4.80
2023-02-05T09:35:38.121Z,4.45
2023-02-05T09:38:05.683Z,4.15
2023-02-05T09:40:39.372Z,4.82
2023-02-05T09:43:33.148Z,4.32
2023-02-05T09:46:19.516Z,4.60
2023-02-05T09:48:53.721Z,4.82
2023-02-05T09:51:33.428Z,4.80
2023-02-05T09:54:18.188Z,4.75
2023-02-05T09:56:46.540Z,4.80
2023-02-05T09:59:18.297Z,4.43
2023-02-05T10:01:58.570Z,5.30
2023-02-05T10:04:27.380Z,4.80
2023-02-05T10:07:31.894Z,5.53
2023-02-05T10:10:22.845Z,6.00
2023-02-05T10:13:27.004Z,5.95
2023-02-05T10:16:06.331Z,5.72
2023-02-05T10:19:04.168Z,6.03
2023-02-05T10:21:50.517Z,6.82
2023-02-05T10:24:36.317Z,6.90
2023-02-05T10:27:19.875Z,7.10
2023-02-05T10:29:57.328Z,7.85
2023-02-05T10:32:34.638Z,7.82
2023-02-05T10:35:13.483Z,6.80
2023-02-05T10:38:11.059Z,7.63
2023-02-05T10:40:42.116Z,7.90
2023-02-05T10:43:27.119Z,7.25
2023-02-05T10:45:56.640Z,7.82
2023-02-05T10:48:23.415Z,7.47
2023-02-05T10:50:50.227Z,8.45
2023-02-05T10:53:21.218Z,8.50
2023-02-05T10:55:48.709Z,8.40
2023-02-05T10:58:26.990Z,8.25
2023-02-05T11:00:54.157Z,7.53
2023-02-05T11:03:23.394Z,6.97
2023-02-05T11:05:50.987Z,7.57
2023-02-05T11:08:44.819Z,7.28
2023-02-05T11:11:23.875Z,7.50
2023-02-05T11:13:57.524Z,6.80
2023-02-05T11:16:34.844Z,7.43
2023-02-05T11:19:02.173Z,7.55
2023-02-05T11:21:53.768Z,7.93
2023-02-05T11:24:42.518Z,7.25
2023-02-05T11:27:33.127Z,6.43
2023-02-05T11:30:50.334Z,6.05
2023-02-05T11:33:26.493Z,5.78
2023-02-05T11:36:05.914Z,5.60
2023-02-05T11:38:52.572Z,5.13
2023-02-05T11:41:51.957Z,5.95
2023-02-05T11:44:29.848Z,6.35
2023-02-05T11:46:59.792Z,6.60
2023-02-05T11:49:38.448Z,5.30
2023-02-05T11:52:14.018Z,5.95
2023-02-05T11:54:46.025Z,5.85
2023-02-05T11:57:19.655Z,5.63
2023-02-05T12:00:01.874Z,6.20
2023-02-05T12:05:05.292Z,4.60
2023-02-05T12:07:55.987Z,5.63
2023-02-05T12:10:52.245Z,5.35
2023-02-05T12:13:58.240Z,5.43
2023-02-05T12:17:16.409Z,5.38
2023-02-05T12:20:01.330Z,5.55
2023-02-05T12:22:43.365Z,5.40
2023-02-05T12:25:36.536Z,5.80
2023-02-05T12:28:18.611Z,4.53
2023-02-05T12:31:00.086Z,4.57
2023-02-05T12:34:04.124Z,5.00
2023-02-05T12:36:52.618Z,4.90
2023-02-05T12:39:40.467Z,4.03
2023-02-05T12:42:22.745Z,4.30
2023-02-05T12:45:15.156Z,4.03
2023-02-05T12:48:12.746Z,3.70
2023-02-05T12:51:06.282Z,3.70
2023-02-05T12:54:00.215Z,3.53
2023-02-05T12:56:38.630Z,3.58
2023-02-05T12:59:29.187Z,4.93
2023-02-05T13:02:04.405Z,3.75
2023-02-05T13:04:39.193Z,3.92
2023-02-05T13:07:24.183Z,3.88
2023-02-05T13:10:01.707Z,3.83
2023-02-05T13:12:33.995Z,3.88
2023-02-05T13:15:21.079Z,4.13
2023-02-05T13:18:11.070Z,3.83
2023-02-05T13:21:07.088Z,4.90
2023-02-05T13:23:54.466Z,3.78
2023-02-05T13:26:53.055Z,3.78
2023-02-05T13:29:23.480Z,3.85
2023-02-05T13:31:55.195Z,3.67
2023-02-05T13:34:22.927Z,3.58
2023-02-05T13:36:52.802Z,3.35
2023-02-05T13:39:47.502Z,2.85
2023-02-05T13:42:45.354Z,3.40
2023-02-05T13:45:37.467Z,5.75
2023-02-05T13:48:08.190Z,4.00
2023-02-05T13:50:34.931Z,4.18
2023-02-05T13:53:26.357Z,3.60
2023-02-05T13:56:24.025Z,2.65
2023-02-05T13:58:58.642Z,2.60
2023-02-05T14:01:31.163Z,2.72
2023-02-05T14:04:17.384Z,3.00
2023-02-05T14:06:50.090Z,2.42
2023-02-05T14:09:24.690Z,2.60
2023-02-05T14:11:58.944Z,2.78
2023-02-05T14:14:37.058Z,3.17
2023-02-05T14:17:32.629Z,4.75
2023-02-05T14:20:01.142Z,3.70
2023-02-05T14:22:34.106Z,3.20
2023-02-05T14:25:00.866Z,3.58
2023-02-05T14:27:30.425Z,3.15
2023-02-05T14:30:17.841Z,2.88
2023-02-05T14:32:44.626Z,2.80
2023-02-05T14:35:32.972Z,3.50
2023-02-05T14:38:14.178Z,2.75
2023-02-05T14:40:41.288Z,2.72
2023-02-05T14:43:38.332Z,2.97
2023-02-05T14:46:18.840Z,3.00
2023-02-05T14:48:47.746Z,2.83
2023-02-05T14:51:36.309Z,2.63
2023-02-05T14:54:06.444Z,2.70
2023-02-05T14:56:47.217Z,2.70
2023-02-05T14:59:19.920Z,2.40
2023-02-05T15:01:50.419Z,2.35
2023-02-05T15:04:37.495Z,2.30
2023-02-05T15:07:21.322Z,2.33
2023-02-05T15:09:58.661Z,2.10
2023-02-05T15:12:44.095Z,2.20
2023-02-05T15:15:37.926Z,1.90
2023-02-05T15:18:20.204Z,2.20
2023-02-05T15:20:49.308Z,1.83
2023-02-05T15:23:43.287Z,2.13
2023-02-05T15:26:47.653Z,1.98
2023-02-05T15:29:14.445Z,1.90
2023-02-05T15:31:48.733Z,1.92
2023-02-05T15:37:00.891Z,1.73
2023-02-05T15:39:54.363Z,2.05
2023-02-05T15:42:32.320Z,1.92
2023-02-05T15:44:59.064Z,2.40
2023-02-05T15:47:27.235Z,2.30
2023-02-05T15:49:57.841Z,2.33
2023-02-05T15:52:27.721Z,2.47
2023-02-05T15:54:59.856Z,2.40
2023-02-05T15:57:29.774Z,3.03
2023-02-05T15:59:58.148Z,3.28
2023-02-05T16:02:29.870Z,3.15
2023-02-05T16:05:03.960Z,3.15
2023-02-05T16:07:40.040Z,3.55
2023-02-05T16:10:20.583Z,2.92
2023-02-05T16:13:17.034Z,3.00
2023-02-05T16:16:00.834Z,2.88
2023-02-05T16:18:34.282Z,3.73
2023-02-05T16:21:28.185Z,3.80
2023-02-05T16:24:04.702Z,3.80
2023-02-05T16:26:42.960Z,3.60
2023-02-05T16:29:25.064Z,3.75
2023-02-05T16:32:17.328Z,3.88
2023-02-05T16:34:45.996Z,3.55
2023-02-05T16:37:18.115Z,4.80
2023-02-05T16:39:53.917Z,5.05
2023-02-05T16:42:26.956Z,4.65
2023-02-05T16:45:03.404Z,3.75
2023-02-05T16:47:30.262Z,4.25
2023-02-05T16:49:57.029Z,3.70
2023-02-05T16:52:31.914Z,4.90
2023-02-05T16:55:05.400Z,4.50
2023-02-05T16:57:36.402Z,4.33
2023-02-05T17:00:19.617Z,4.75
2023-02-05T17:02:46.963Z,4.18
2023-02-05T17:05:30.776Z,4.40
2023-02-05T17:08:09.309Z,4.27
2023-02-05T17:10:54.452Z,4.28
2023-02-05T17:13:28.900Z,3.97
2023-02-05T17:15:55.855Z,4.70
2023-02-05T17:18:30.972Z,3.92
2023-02-05T17:21:23.659Z,4.55
2023-02-05T17:23:52.101Z,4.65
2023-02-05T17:26:19.984Z,4.80
2023-02-05T17:28:51.858Z,4.25
2023-02-05T17:31:18.778Z,4.25
2023-02-05T17:33:50.871Z,4.63
2023-02-05T17:36:17.832Z,4.38
2023-02-05T17:38:45.380Z,4.35
2023-02-05T17:41:42.320Z,4.60
2023-02-05T17:44:13.014Z,4.97
2023-02-05T17:46:40.658Z,4.55
2023-02-05T17:49:07.706Z,4.40
2023-02-05T17:51:35.218Z,4.60
2023-02-05T17:54:02.178Z,4.15
2023-02-05T17:56:29.034Z,5.15
2023-02-05T17:58:55.850Z,4.45
2023-02-05T18:01:22.803Z,4.80
2023-02-05T18:03:49.593Z,5.20
2023-02-05T18:06:18.402Z,4.28
2023-02-05T18:08:45.276Z,4.07
2023-02-05T18:11:12.105Z,4.03
2023-02-05T18:13:38.915Z,4.45
2023-02-05T18:16:06.009Z,4.15
2023-02-05T18:18:35.371Z,3.97
2023-02-05T18:21:02.451Z,3.90
2023-02-05T18:23:29.559Z,4.30
2023-02-05T18:25:57.771Z,4.00
2023-02-05T18:28:24.707Z,4.20
2023-02-05T18:31:03.356Z,4.55
2023-02-05T18:33:30.271Z,4.20
2023-02-05T18:36:12.611Z,4.50
2023-02-05T18:38:41.157Z,5.00
2023-02-05T18:41:08.839Z,4.80
2023-02-05T18:43:36.419Z,4.90
2023-02-05T18:46:11.911Z,4.90
2023-02-05T18:48:40.809Z,4.30
2023-02-05T18:51:09.878Z,4.55
2023-02-05T18:53:39.059Z,4.88
2023-02-05T18:56:17.936Z,4.85
2023-02-05T18:58:50.422Z,4.70
2023-02-05T19:01:20.825Z,4.90
2023-02-05T19:03:47.952Z,4.95
2023-02-05T19:06:17.014Z,4.65
2023-02-05T19:08:44.261Z,4.32
2023-02-05T19:11:20.273Z,4.93
2023-02-05T19:13:48.497Z,4.47
2023-02-05T19:16:16.738Z,4.63
2023-02-05T19:18:45.767Z,4.50
2023-02-05T19:21:15.022Z,4.53
2023-02-05T19:23:44.204Z,4.80
2023-02-05T19:26:14.448Z,4.45
2023-02-05T19:28:42.560Z,3.78
2023-02-05T19:31:12.776Z,4.60
2023-02-05T19:33:40.635Z,4.28
2023-02-05T19:36:09.285Z,4.10
2023-02-05T19:38:37.533Z,4.07
2023-02-05T19:41:15.089Z,4.40
2023-02-05T19:43:49.781Z,3.83
2023-02-05T19:46:19.598Z,4.00
2023-02-05T19:48:47.094Z,3.80
2023-02-05T19:51:15.628Z,4.05
2023-02-05T19:53:45.196Z,4.20
2023-02-05T19:56:20.481Z,3.80
2023-02-05T19:58:50.407Z,4.25
2023-02-05T20:01:25.094Z,3.67
2023-02-05T20:03:53.916Z,3.92
2023-02-05T20:06:22.387Z,3.95
2023-02-05T20:08:49.776Z,3.78
2023-02-05T20:11:17.905Z,3.83
2023-02-05T20:13:45.578Z,4.03
2023-02-05T20:16:16.068Z,3.75
2023-02-05T20:18:43.374Z,4.05
2023-02-05T20:21:12.791Z,3.40
2023-02-05T20:23:39.683Z,4.20
2023-02-05T20:26:07.852Z,3.95
2023-02-05T20:28:59.731Z,3.90
2023-02-05T20:31:35.200Z,4.22
2023-02-05T20:34:03.420Z,4.13
2023-02-05T20:36:32.236Z,4.53
2023-02-05T20:39:00.706Z,3.90
2023-02-05T20:41:28.087Z,3.90
2023-02-05T20:43:56.828Z,4.40
2023-02-05T20:46:24.782Z,4.55
2023-02-05T20:48:51.838Z,4.68
2023-02-05T20:51:21.366Z,4.78
2023-02-05T20:53:49.022Z,5.28
2023-02-05T20:56:18.652Z,4.25
2023-02-05T20:58:46.385Z,5.50
2023-02-05T21:01:16.472Z,5.35
2023-02-05T21:03:46.040Z,6.18
2023-02-05T21:06:14.429Z,6.13
2023-02-05T21:08:43.502Z,6.13
2023-02-05T21:11:10.531Z,6.35
2023-02-05T21:13:37.391Z,7.07
2023-02-05T21:16:04.614Z,7.20
2023-02-05T21:18:32.025Z,6.90
2023-02-05T21:21:10.255Z,6.70
2023-02-05T21:23:37.458Z,5.90
2023-02-05T21:26:04.859Z,6.07
2023-02-05T21:28:32.641Z,6.60
2023-02-05T21:31:07.912Z,6.40
2023-02-05T21:33:35.930Z,6.38
2023-02-05T21:36:08.379Z,6.07
2023-02-05T21:38:36.655Z,7.65
2023-02-05T21:41:12.309Z,6.47
2023-02-05T21:43:39.477Z,6.68
2023-02-05T21:46:10.991Z,6.40
2023-02-05T21:48:38.103Z,7.18
2023-02-05T21:51:13.555Z,5.90
2023-02-05T21:53:40.729Z,5.05
2023-02-05T21:56:09.910Z,5.40
2023-02-05T21:58:39.226Z,5.35
2023-02-05T22:01:13.995Z,5.75
2023-02-05T22:03:42.908Z,5.15
2023-02-05T22:06:09.972Z,5.35
2023-02-05T22:08:38.427Z,6.13
2023-02-05T22:11:08.251Z,5.47
2023-02-05T22:13:37.936Z,5.90
2023-02-05T22:16:08.072Z,6.07
2023-02-05T22:18:36.121Z,5.70
2023-02-05T22:21:14.978Z,5.80
2023-02-05T22:23:43.609Z,5.75
2023-02-05T22:26:10.877Z,6.60
2023-02-05T22:28:38.568Z,5.90
2023-02-05T22:31:08.562Z,6.13
2023-02-05T22:33:37.249Z,6.07
2023-02-05T22:36:05.492Z,6.03
2023-02-05T22:38:33.985Z,5.63
2023-02-05T22:41:00.913Z,5.63
2023-02-05T22:43:28.316Z,6.40
2023-02-05T22:45:55.083Z,5.78
2023-02-05T22:48:21.899Z,6.32
2023-02-05T22:50:48.811Z,5.97
2023-02-05T22:53:15.755Z,5.75
2023-02-05T22:55:42.630Z,5.40
2023-02-05T22:58:10.144Z,6.18
2023-02-05T23:00:37.219Z,6.05
2023-02-05T23:03:04.267Z,6.35
2023-02-05T23:05:33.039Z,5.72
2023-02-05T23:08:00.528Z,6.10
2023-02-05T23:10:28.559Z,5.93
2023-02-05T23:12:55.804Z,5.53
2023-02-05T23:15:22.670Z,5.72
2023-02-05T23:17:49.479Z,6.40
2023-02-05T23:20:16.783Z,5.70
2023-02-05T23:22:43.862Z,5.47
2023-02-05T23:25:11.541Z,5.50
2023-02-05T23:27:39.065Z,5.38
2023-02-05T23:30:06.569Z,5.78
2023-02-05T23:32:33.339Z,5.40
2023-02-05T23:35:00.150Z,5.78
2023-02-05T23:37:26.932Z,6.15
2023-02-05T23:39:53.698Z,5.25
2023-02-05T23:42:20.465Z,5.22
2023-02-05T23:44:47.277Z,5.25
2023-02-05T23:47:14.050Z,5.18
2023-02-05T23:49:40.835Z,5.43
2023-02-05T23:52:07.590Z,5.05
2023-02-05T23:54:34.401Z,5.03
2023-02-05T23:57:01.199Z,5.28
2023-02-05T23:59:28.025Z,5.68
